sensor_id;sensor_type;location;lat;lon;timestamp;temperature;humidity
78455;SHT31;67751;51.986;5.696;2024-02-26T00:01:09;7.9;72.6
78455;SHT31;67751;51.986;5.696;2024-02-26T00:03:39;7.9;72.8
78455;SHT31;67751;51.986;5.696;2024-02-26T00:06:09;7.9;73.0
78455;SHT31;67751;51.986;5.696;2024-02-26T00:08:39;7.9;72.4
78455;SHT31;67751;51.986;5.696;2024-02-26T00:11:10;7.9;72.6
78455;SHT31;67751;51.986;5.696;2024-02-26T00:13:42;7.9;72.7
78455;SHT31;67751;51.986;5.696;2024-02-26T00:16:11;7.9;72.4
78455;SHT31;67751;51.986;5.696;2024-02-26T00:18:41;7.9;71.6
78455;SHT31;67751;51.986;5.696;2024-02-26T00:21:12;7.8;72.7
78455;SHT31;67751;51.986;5.696;2024-02-26T00:23:41;7.8;72.7
78455;SHT31;67751;51.986;5.696;2024-02-26T00:26:11;7.8;72.7
78455;SHT31;67751;51.986;5.696;2024-02-26T00:28:43;7.8;72.5
78455;SHT31;67751;51.986;5.696;2024-02-26T00:31:13;7.8;72.7
78455;SHT31;67751;51.986;5.696;2024-02-26T00:33:42;7.8;72.7
78455;SHT31;67751;51.986;5.696;2024-02-26T00:36:13;7.8;72.2
78455;SHT31;67751;51.986;5.696;2024-02-26T00:38:43;7.8;72.4
78455;SHT31;67751;51.986;5.696;2024-02-26T00:41:18;7.8;72.4
78455;SHT31;67751;51.986;5.696;2024-02-26T00:43:48;7.8;72.4
78455;SHT31;67751;51.986;5.696;2024-02-26T00:46:17;7.8;72.7
78455;SHT31;67751;51.986;5.696;2024-02-26T00:48:47;7.8;72.1
78455;SHT31;67751;51.986;5.696;2024-02-26T00:51:16;7.8;71.9
78455;SHT31;67751;51.986;5.696;2024-02-26T00:53:46;7.8;72.4
78455;SHT31;67751;51.986;5.696;2024-02-26T00:56:15;7.8;73.0
78455;SHT31;67751;51.986;5.696;2024-02-26T00:58:45;7.8;72.3
78455;SHT31;67751;51.986;5.696;2024-02-26T01:01:15;7.8;73.2
78455;SHT31;67751;51.986;5.696;2024-02-26T01:03:44;7.8;73.1
78455;SHT31;67751;51.986;5.696;2024-02-26T01:06:14;7.8;72.7
78455;SHT31;67751;51.986;5.696;2024-02-26T01:08:43;7.8;73.1
78455;SHT31;67751;51.986;5.696;2024-02-26T01:11:13;7.8;72.9
78455;SHT31;67751;51.986;5.696;2024-02-26T01:13:43;7.8;73.2
78455;SHT31;67751;51.986;5.696;2024-02-26T01:16:12;7.8;72.8
78455;SHT31;67751;51.986;5.696;2024-02-26T01:18:42;7.8;72.8
78455;SHT31;67751;51.986;5.696;2024-02-26T01:21:11;7.8;72.8
78455;SHT31;67751;51.986;5.696;2024-02-26T01:23:42;7.8;72.8
78455;SHT31;67751;51.986;5.696;2024-02-26T01:26:11;7.8;72.0
78455;SHT31;67751;51.986;5.696;2024-02-26T01:28:43;7.8;71.5
78455;SHT31;67751;51.986;5.696;2024-02-26T01:31:13;7.7;72.0
78455;SHT31;67751;51.986;5.696;2024-02-26T01:33:43;7.7;72.1
78455;SHT31;67751;51.986;5.696;2024-02-26T01:36:12;7.7;71.2
78455;SHT31;67751;51.986;5.696;2024-02-26T01:38:42;7.7;71.7
78455;SHT31;67751;51.986;5.696;2024-02-26T01:41:13;7.7;72.4
78455;SHT31;67751;51.986;5.696;2024-02-26T01:43:43;7.7;73.2
78455;SHT31;67751;51.986;5.696;2024-02-26T01:46:14;7.7;72.5
78455;SHT31;67751;51.986;5.696;2024-02-26T01:48:46;7.8;72.7
78455;SHT31;67751;51.986;5.696;2024-02-26T01:51:17;7.8;72.3
78455;SHT31;67751;51.986;5.696;2024-02-26T01:53:47;7.8;72.3
78455;SHT31;67751;51.986;5.696;2024-02-26T01:56:19;7.8;72.7
78455;SHT31;67751;51.986;5.696;2024-02-26T01:58:49;7.8;72.4
78455;SHT31;67751;51.986;5.696;2024-02-26T02:01:24;7.8;71.7
78455;SHT31;67751;51.986;5.696;2024-02-26T02:03:57;7.8;72.9
78455;SHT31;67751;51.986;5.696;2024-02-26T02:06:27;7.8;71.9
78455;SHT31;67751;51.986;5.696;2024-02-26T02:08:57;7.8;73.0
78455;SHT31;67751;51.986;5.696;2024-02-26T02:11:32;7.8;72.2
78455;SHT31;67751;51.986;5.696;2024-02-26T02:14:02;7.8;72.4
78455;SHT31;67751;51.986;5.696;2024-02-26T02:16:32;7.8;72.5
78455;SHT31;67751;51.986;5.696;2024-02-26T02:19:02;7.9;73.1
78455;SHT31;67751;51.986;5.696;2024-02-26T02:21:31;7.9;73.2
78455;SHT31;67751;51.986;5.696;2024-02-26T02:24:01;7.9;72.9
78455;SHT31;67751;51.986;5.696;2024-02-26T02:26:30;7.9;72.8
78455;SHT31;67751;51.986;5.696;2024-02-26T02:29:01;7.9;72.8
78455;SHT31;67751;51.986;5.696;2024-02-26T02:31:31;7.9;72.8
78455;SHT31;67751;51.986;5.696;2024-02-26T02:34:00;8.0;72.5
78455;SHT31;67751;51.986;5.696;2024-02-26T02:36:30;8.0;71.3
78455;SHT31;67751;51.986;5.696;2024-02-26T02:39:02;8.0;72.1
78455;SHT31;67751;51.986;5.696;2024-02-26T02:41:31;8.0;71.8
78455;SHT31;67751;51.986;5.696;2024-02-26T02:44:01;8.0;72.4
78455;SHT31;67751;51.986;5.696;2024-02-26T02:46:30;8.0;71.8
78455;SHT31;67751;51.986;5.696;2024-02-26T02:49:02;8.0;71.9
78455;SHT31;67751;51.986;5.696;2024-02-26T02:51:32;8.0;71.0
78455;SHT31;67751;51.986;5.696;2024-02-26T02:54:02;8.0;72.1
78455;SHT31;67751;51.986;5.696;2024-02-26T02:56:31;7.9;71.9
78455;SHT31;67751;51.986;5.696;2024-02-26T02:59:01;7.9;72.3
78455;SHT31;67751;51.986;5.696;2024-02-26T03:01:31;7.9;72.7
78455;SHT31;67751;51.986;5.696;2024-02-26T03:04:01;7.9;72.4
78455;SHT31;67751;51.986;5.696;2024-02-26T03:06:30;7.9;71.2
78455;SHT31;67751;51.986;5.696;2024-02-26T03:09:00;7.9;71.8
78455;SHT31;67751;51.986;5.696;2024-02-26T03:11:29;7.9;72.0
78455;SHT31;67751;51.986;5.696;2024-02-26T03:13:59;7.9;72.4
78455;SHT31;67751;51.986;5.696;2024-02-26T03:16:29;7.9;72.8
78455;SHT31;67751;51.986;5.696;2024-02-26T03:18:58;7.9;72.1
78455;SHT31;67751;51.986;5.696;2024-02-26T03:21:28;7.9;70.5
78455;SHT31;67751;51.986;5.696;2024-02-26T03:24:00;7.9;71.8
78455;SHT31;67751;51.986;5.696;2024-02-26T03:26:30;7.9;72.6
78455;SHT31;67751;51.986;5.696;2024-02-26T03:29:00;7.9;72.4
78455;SHT31;67751;51.986;5.696;2024-02-26T03:31:30;7.9;72.7
78455;SHT31;67751;51.986;5.696;2024-02-26T03:34:00;7.8;72.2
78455;SHT31;67751;51.986;5.696;2024-02-26T03:36:29;7.8;72.0
78455;SHT31;67751;51.986;5.696;2024-02-26T03:38:59;7.8;72.5
78455;SHT31;67751;51.986;5.696;2024-02-26T03:41:31;7.8;71.8
78455;SHT31;67751;51.986;5.696;2024-02-26T03:44:01;7.8;72.7
78455;SHT31;67751;51.986;5.696;2024-02-26T03:46:31;7.8;72.5
78455;SHT31;67751;51.986;5.696;2024-02-26T03:49:00;7.8;72.7
78455;SHT31;67751;51.986;5.696;2024-02-26T03:51:30;7.8;72.1
78455;SHT31;67751;51.986;5.696;2024-02-26T03:54:00;7.8;71.5
78455;SHT31;67751;51.986;5.696;2024-02-26T03:56:30;7.8;72.0
78455;SHT31;67751;51.986;5.696;2024-02-26T03:59:00;7.9;72.2
78455;SHT31;67751;51.986;5.696;2024-02-26T04:01:30;7.9;72.3
78455;SHT31;67751;51.986;5.696;2024-02-26T04:04:02;7.9;72.4
78455;SHT31;67751;51.986;5.696;2024-02-26T04:06:31;7.9;73.2
78455;SHT31;67751;51.986;5.696;2024-02-26T04:09:01;7.9;71.9
78455;SHT31;67751;51.986;5.696;2024-02-26T04:11:31;7.9;71.6
78455;SHT31;67751;51.986;5.696;2024-02-26T04:14:01;7.9;71.3
78455;SHT31;67751;51.986;5.696;2024-02-26T04:16:33;7.9;71.6
78455;SHT31;67751;51.986;5.696;2024-02-26T04:19:02;7.9;70.5
78455;SHT31;67751;51.986;5.696;2024-02-26T04:21:32;7.9;71.2
78455;SHT31;67751;51.986;5.696;2024-02-26T04:24:02;7.9;70.5
78455;SHT31;67751;51.986;5.696;2024-02-26T04:26:31;7.8;71.2
78455;SHT31;67751;51.986;5.696;2024-02-26T04:29:01;7.8;70.8
78455;SHT31;67751;51.986;5.696;2024-02-26T04:31:30;7.8;70.2
78455;SHT31;67751;51.986;5.696;2024-02-26T04:34:00;7.8;71.9
78455;SHT31;67751;51.986;5.696;2024-02-26T04:36:30;7.8;70.9
78455;SHT31;67751;51.986;5.696;2024-02-26T04:39:00;7.8;71.7
78455;SHT31;67751;51.986;5.696;2024-02-26T04:41:30;7.7;72.2
78455;SHT31;67751;51.986;5.696;2024-02-26T04:43:59;7.7;72.9
78455;SHT31;67751;51.986;5.696;2024-02-26T04:46:31;7.7;72.2
78455;SHT31;67751;51.986;5.696;2024-02-26T04:49:00;7.7;73.4
78455;SHT31;67751;51.986;5.696;2024-02-26T04:51:32;7.7;72.4
78455;SHT31;67751;51.986;5.696;2024-02-26T04:54:01;7.7;71.7
78455;SHT31;67751;51.986;5.696;2024-02-26T04:56:31;7.7;71.6
78455;SHT31;67751;51.986;5.696;2024-02-26T04:59:00;7.7;72.0
78455;SHT31;67751;51.986;5.696;2024-02-26T05:01:30;7.7;72.8
78455;SHT31;67751;51.986;5.696;2024-02-26T05:04:00;7.7;72.8
78455;SHT31;67751;51.986;5.696;2024-02-26T05:06:30;7.7;72.9
78455;SHT31;67751;51.986;5.696;2024-02-26T05:09:00;7.7;73.3
78455;SHT31;67751;51.986;5.696;2024-02-26T05:11:31;7.7;73.0
78455;SHT31;67751;51.986;5.696;2024-02-26T05:14:00;7.6;72.4
78455;SHT31;67751;51.986;5.696;2024-02-26T05:16:30;7.6;72.5
78455;SHT31;67751;51.986;5.696;2024-02-26T05:19:00;7.6;72.1
78455;SHT31;67751;51.986;5.696;2024-02-26T05:21:30;7.6;73.0
78455;SHT31;67751;51.986;5.696;2024-02-26T05:24:01;7.6;73.1
78455;SHT31;67751;51.986;5.696;2024-02-26T05:26:31;7.6;72.5
78455;SHT31;67751;51.986;5.696;2024-02-26T05:29:01;7.6;72.7
78455;SHT31;67751;51.986;5.696;2024-02-26T05:31:30;7.6;73.4
78455;SHT31;67751;51.986;5.696;2024-02-26T05:34:00;7.6;73.7
78455;SHT31;67751;51.986;5.696;2024-02-26T05:36:29;7.6;73.6
78455;SHT31;67751;51.986;5.696;2024-02-26T05:39:01;7.6;73.3
78455;SHT31;67751;51.986;5.696;2024-02-26T05:41:31;7.6;73.0
78455;SHT31;67751;51.986;5.696;2024-02-26T05:44:01;7.6;73.6
78455;SHT31;67751;51.986;5.696;2024-02-26T05:46:31;7.6;72.9
78455;SHT31;67751;51.986;5.696;2024-02-26T05:49:00;7.6;73.9
78455;SHT31;67751;51.986;5.696;2024-02-26T05:51:30;7.6;73.5
78455;SHT31;67751;51.986;5.696;2024-02-26T05:53:59;7.6;74.0
78455;SHT31;67751;51.986;5.696;2024-02-26T05:56:29;7.6;73.3
78455;SHT31;67751;51.986;5.696;2024-02-26T05:58:58;7.6;73.7
78455;SHT31;67751;51.986;5.696;2024-02-26T06:01:28;7.6;74.2
78455;SHT31;67751;51.986;5.696;2024-02-26T06:03:58;7.5;73.8
78455;SHT31;67751;51.986;5.696;2024-02-26T06:06:27;7.5;73.8
78455;SHT31;67751;51.986;5.696;2024-02-26T06:08:57;7.5;73.7
78455;SHT31;67751;51.986;5.696;2024-02-26T06:11:26;7.5;74.6
78455;SHT31;67751;51.986;5.696;2024-02-26T06:13:56;7.5;74.4
78455;SHT31;67751;51.986;5.696;2024-02-26T06:16:28;7.5;74.3
78455;SHT31;67751;51.986;5.696;2024-02-26T06:18:58;7.5;74.6
78455;SHT31;67751;51.986;5.696;2024-02-26T06:21:27;7.4;74.4
78455;SHT31;67751;51.986;5.696;2024-02-26T06:23:57;7.4;74.3
78455;SHT31;67751;51.986;5.696;2024-02-26T06:26:27;7.4;73.9
78455;SHT31;67751;51.986;5.696;2024-02-26T06:28:57;7.4;74.5
78455;SHT31;67751;51.986;5.696;2024-02-26T06:31:27;7.4;75.4
78455;SHT31;67751;51.986;5.696;2024-02-26T06:33:57;7.4;75.6
78455;SHT31;67751;51.986;5.696;2024-02-26T06:36:26;7.4;75.3
78455;SHT31;67751;51.986;5.696;2024-02-26T06:38:56;7.4;75.3
78455;SHT31;67751;51.986;5.696;2024-02-26T06:41:27;7.4;75.4
78455;SHT31;67751;51.986;5.696;2024-02-26T06:43:57;7.5;75.7
78455;SHT31;67751;51.986;5.696;2024-02-26T06:46:27;7.5;74.8
78455;SHT31;67751;51.986;5.696;2024-02-26T06:48:58;7.5;75.1
78455;SHT31;67751;51.986;5.696;2024-02-26T06:51:27;7.5;74.8
78455;SHT31;67751;51.986;5.696;2024-02-26T06:53:57;7.5;74.5
78455;SHT31;67751;51.986;5.696;2024-02-26T06:56:27;7.5;74.8
78455;SHT31;67751;51.986;5.696;2024-02-26T06:58:57;7.5;75.2
78455;SHT31;67751;51.986;5.696;2024-02-26T07:01:26;7.5;75.2
78455;SHT31;67751;51.986;5.696;2024-02-26T07:03:56;7.5;74.9
78455;SHT31;67751;51.986;5.696;2024-02-26T07:06:26;7.5;75.1
78455;SHT31;67751;51.986;5.696;2024-02-26T07:08:56;7.5;75.4
78455;SHT31;67751;51.986;5.696;2024-02-26T07:11:25;7.5;75.3
78455;SHT31;67751;51.986;5.696;2024-02-26T07:13:55;7.5;74.7
78455;SHT31;67751;51.986;5.696;2024-02-26T07:16:24;7.5;74.9
78455;SHT31;67751;51.986;5.696;2024-02-26T07:18:54;7.5;75.2
78455;SHT31;67751;51.986;5.696;2024-02-26T07:21:24;7.4;75.9
78455;SHT31;67751;51.986;5.696;2024-02-26T07:23:54;7.4;75.7
78455;SHT31;67751;51.986;5.696;2024-02-26T07:26:23;7.4;76.1
78455;SHT31;67751;51.986;5.696;2024-02-26T07:28:55;7.4;74.7
78455;SHT31;67751;51.986;5.696;2024-02-26T07:31:25;7.4;74.9
78455;SHT31;67751;51.986;5.696;2024-02-26T07:33:54;7.4;75.6
78455;SHT31;67751;51.986;5.696;2024-02-26T07:36:24;7.4;75.5
78455;SHT31;67751;51.986;5.696;2024-02-26T07:38:53;7.4;75.7
78455;SHT31;67751;51.986;5.696;2024-02-26T07:41:25;7.4;75.9
78455;SHT31;67751;51.986;5.696;2024-02-26T07:43:54;7.4;75.5
78455;SHT31;67751;51.986;5.696;2024-02-26T07:46:24;7.4;75.7
78455;SHT31;67751;51.986;5.696;2024-02-26T07:48:54;7.4;76.1
78455;SHT31;67751;51.986;5.696;2024-02-26T07:51:25;7.4;76.4
78455;SHT31;67751;51.986;5.696;2024-02-26T07:53:55;7.4;76.8
78455;SHT31;67751;51.986;5.696;2024-02-26T07:56:26;7.4;76.4
78455;SHT31;67751;51.986;5.696;2024-02-26T07:58:56;7.4;76.5
78455;SHT31;67751;51.986;5.696;2024-02-26T08:01:25;7.4;76.9
78455;SHT31;67751;51.986;5.696;2024-02-26T08:03:55;7.4;77.1
78455;SHT31;67751;51.986;5.696;2024-02-26T08:06:25;7.5;77.4
78455;SHT31;67751;51.986;5.696;2024-02-26T08:08:55;7.5;76.5
78455;SHT31;67751;51.986;5.696;2024-02-26T08:11:24;7.5;76.8
78455;SHT31;67751;51.986;5.696;2024-02-26T08:13:55;7.5;76.8
78455;SHT31;67751;51.986;5.696;2024-02-26T08:16:26;7.5;76.7
78455;SHT31;67751;51.986;5.696;2024-02-26T08:18:56;7.5;77.0
78455;SHT31;67751;51.986;5.696;2024-02-26T08:21:25;7.5;76.5
78455;SHT31;67751;51.986;5.696;2024-02-26T08:23:55;7.5;76.9
78455;SHT31;67751;51.986;5.696;2024-02-26T08:26:25;7.5;76.5
78455;SHT31;67751;51.986;5.696;2024-02-26T08:28:54;7.5;76.8
78455;SHT31;67751;51.986;5.696;2024-02-26T08:31:25;7.5;76.7
78455;SHT31;67751;51.986;5.696;2024-02-26T08:33:55;7.5;76.8
78455;SHT31;67751;51.986;5.696;2024-02-26T08:36:25;7.4;77.3
78455;SHT31;67751;51.986;5.696;2024-02-26T08:38:55;7.4;76.9
78455;SHT31;67751;51.986;5.696;2024-02-26T08:41:24;7.4;77.2
78455;SHT31;67751;51.986;5.696;2024-02-26T08:43:54;7.4;77.4
78455;SHT31;67751;51.986;5.696;2024-02-26T08:46:25;7.4;77.6
78455;SHT31;67751;51.986;5.696;2024-02-26T08:48:55;7.4;77.7
78455;SHT31;67751;51.986;5.696;2024-02-26T08:51:24;7.5;77.7
78455;SHT31;67751;51.986;5.696;2024-02-26T08:53:54;7.5;77.8
78455;SHT31;67751;51.986;5.696;2024-02-26T08:56:25;7.5;78.0
78455;SHT31;67751;51.986;5.696;2024-02-26T08:58:55;7.5;78.1
78455;SHT31;67751;51.986;5.696;2024-02-26T09:01:28;7.5;78.0
78455;SHT31;67751;51.986;5.696;2024-02-26T09:03:58;7.5;77.8
78455;SHT31;67751;51.986;5.696;2024-02-26T09:06:28;7.6;77.8
78455;SHT31;67751;51.986;5.696;2024-02-26T09:08:57;7.6;78.1
78455;SHT31;67751;51.986;5.696;2024-02-26T09:11:27;7.6;77.5
78455;SHT31;67751;51.986;5.696;2024-02-26T09:13:57;7.6;78.0
78455;SHT31;67751;51.986;5.696;2024-02-26T09:16:26;7.6;77.6
78455;SHT31;67751;51.986;5.696;2024-02-26T09:18:56;7.6;77.6
78455;SHT31;67751;51.986;5.696;2024-02-26T09:21:26;7.6;77.9
78455;SHT31;67751;51.986;5.696;2024-02-26T09:23:55;7.6;78.1
78455;SHT31;67751;51.986;5.696;2024-02-26T09:26:27;7.6;78.2
78455;SHT31;67751;51.986;5.696;2024-02-26T09:28:56;7.6;77.7
78455;SHT31;67751;51.986;5.696;2024-02-26T09:31:26;7.6;77.4
78455;SHT31;67751;51.986;5.696;2024-02-26T09:33:58;7.6;78.3
78455;SHT31;67751;51.986;5.696;2024-02-26T09:36:27;7.5;78.0
78455;SHT31;67751;51.986;5.696;2024-02-26T10:28:18;7.5;78.9
78455;SHT31;67751;51.986;5.696;2024-02-26T10:30:47;7.5;78.9
78455;SHT31;67751;51.986;5.696;2024-02-26T10:33:18;7.6;78.3
78455;SHT31;67751;51.986;5.696;2024-02-26T10:35:48;7.6;78.6
78455;SHT31;67751;51.986;5.696;2024-02-26T10:38:18;7.6;78.4
78455;SHT31;67751;51.986;5.696;2024-02-26T10:40:48;7.6;78.8
78455;SHT31;67751;51.986;5.696;2024-02-26T10:43:18;7.6;78.4
78455;SHT31;67751;51.986;5.696;2024-02-26T10:45:48;7.6;77.7
78455;SHT31;67751;51.986;5.696;2024-02-26T10:48:17;7.6;78.5
78455;SHT31;67751;51.986;5.696;2024-02-26T10:50:48;7.6;78.1
78455;SHT31;67751;51.986;5.696;2024-02-26T10:53:20;7.6;78.5
78455;SHT31;67751;51.986;5.696;2024-02-26T10:55:55;7.6;78.0
78455;SHT31;67751;51.986;5.696;2024-02-26T10:58:25;7.6;78.5
78455;SHT31;67751;51.986;5.696;2024-02-26T11:00:57;7.6;78.3
78455;SHT31;67751;51.986;5.696;2024-02-26T11:03:28;7.6;78.5
78455;SHT31;67751;51.986;5.696;2024-02-26T11:06:05;7.6;79.1
78455;SHT31;67751;51.986;5.696;2024-02-26T11:08:36;7.6;79.4
78455;SHT31;67751;51.986;5.696;2024-02-26T11:11:07;7.6;78.7
78455;SHT31;67751;51.986;5.696;2024-02-26T11:13:42;7.6;78.8
78455;SHT31;67751;51.986;5.696;2024-02-26T11:16:18;7.6;79.1
78455;SHT31;67751;51.986;5.696;2024-02-26T11:18:49;7.6;78.8
78455;SHT31;67751;51.986;5.696;2024-02-26T11:21:21;7.6;78.4
78455;SHT31;67751;51.986;5.696;2024-02-26T11:23:57;7.6;78.7
78455;SHT31;67751;51.986;5.696;2024-02-26T11:26:27;7.6;79.4
78455;SHT31;67751;51.986;5.696;2024-02-26T11:28:58;7.6;79.3
78455;SHT31;67751;51.986;5.696;2024-02-26T11:31:28;7.6;79.0
78455;SHT31;67751;51.986;5.696;2024-02-26T11:34:00;7.6;78.3
78455;SHT31;67751;51.986;5.696;2024-02-26T11:36:29;7.6;78.6
78455;SHT31;67751;51.986;5.696;2024-02-26T11:38:59;7.6;79.1
78455;SHT31;67751;51.986;5.696;2024-02-26T11:41:32;7.7;79.1
78455;SHT31;67751;51.986;5.696;2024-02-26T11:44:02;7.7;78.4
78455;SHT31;67751;51.986;5.696;2024-02-26T11:46:39;7.7;78.7
78455;SHT31;67751;51.986;5.696;2024-02-26T11:49:32;7.7;79.2
78455;SHT31;67751;51.986;5.696;2024-02-26T11:52:06;7.7;78.8
78455;SHT31;67751;51.986;5.696;2024-02-26T11:54:44;7.7;78.6
78455;SHT31;67751;51.986;5.696;2024-02-26T11:57:25;7.7;79.2
78455;SHT31;67751;51.986;5.696;2024-02-26T11:59:57;7.8;78.8
78455;SHT31;67751;51.986;5.696;2024-02-26T12:02:41;7.8;78.5
78455;SHT31;67751;51.986;5.696;2024-02-26T12:05:13;7.8;78.8
78455;SHT31;67751;51.986;5.696;2024-02-26T12:07:48;7.8;78.7
78455;SHT31;67751;51.986;5.696;2024-02-26T12:10:23;7.8;78.9
78455;SHT31;67751;51.986;5.696;2024-02-26T12:12:58;7.8;77.8
78455;SHT31;67751;51.986;5.696;2024-02-26T12:15:36;7.8;78.1
78455;SHT31;67751;51.986;5.696;2024-02-26T12:18:07;7.8;78.6
78455;SHT31;67751;51.986;5.696;2024-02-26T12:20:37;7.8;77.9
78455;SHT31;67751;51.986;5.696;2024-02-26T12:23:07;7.8;77.4
78455;SHT31;67751;51.986;5.696;2024-02-26T12:25:37;7.8;78.2
78455;SHT31;67751;51.986;5.696;2024-02-26T12:28:07;7.8;78.5
78455;SHT31;67751;51.986;5.696;2024-02-26T12:30:36;7.8;78.1
78455;SHT31;67751;51.986;5.696;2024-02-26T12:33:08;7.8;77.7
78455;SHT31;67751;51.986;5.696;2024-02-26T12:35:37;7.8;78.4
78455;SHT31;67751;51.986;5.696;2024-02-26T12:38:08;7.8;78.2
78455;SHT31;67751;51.986;5.696;2024-02-26T12:40:39;7.8;78.3
78455;SHT31;67751;51.986;5.696;2024-02-26T12:43:09;7.8;78.4
78455;SHT31;67751;51.986;5.696;2024-02-26T12:45:40;7.8;78.7
78455;SHT31;67751;51.986;5.696;2024-02-26T12:48:13;7.8;78.5
78455;SHT31;67751;51.986;5.696;2024-02-26T12:50:45;7.8;78.8
78455;SHT31;67751;51.986;5.696;2024-02-26T12:53:15;7.8;79.2
78455;SHT31;67751;51.986;5.696;2024-02-26T12:55:45;7.8;79.2
78455;SHT31;67751;51.986;5.696;2024-02-26T12:58:15;7.8;78.6
78455;SHT31;67751;51.986;5.696;2024-02-26T13:00:47;7.8;78.7
78455;SHT31;67751;51.986;5.696;2024-02-26T13:03:17;7.9;78.1
78455;SHT31;67751;51.986;5.696;2024-02-26T13:05:48;7.9;79.0
78455;SHT31;67751;51.986;5.696;2024-02-26T13:08:19;7.9;79.0
78455;SHT31;67751;51.986;5.696;2024-02-26T13:10:50;7.9;78.9
78455;SHT31;67751;51.986;5.696;2024-02-26T13:13:22;7.9;79.0
78455;SHT31;67751;51.986;5.696;2024-02-26T13:16:14;7.9;79.1
78455;SHT31;67751;51.986;5.696;2024-02-26T13:18:39;8.0;78.3
78455;SHT31;67751;51.986;5.696;2024-02-26T13:21:12;8.0;78.1
78455;SHT31;67751;51.986;5.696;2024-02-26T13:23:43;8.0;78.3
78455;SHT31;67751;51.986;5.696;2024-02-26T13:26:14;8.0;77.7
78455;SHT31;67751;51.986;5.696;2024-02-26T13:28:44;8.0;78.2
78455;SHT31;67751;51.986;5.696;2024-02-26T13:31:15;8.0;78.5
78455;SHT31;67751;51.986;5.696;2024-02-26T13:33:46;8.0;78.0
78455;SHT31;67751;51.986;5.696;2024-02-26T13:36:17;8.0;78.1
78455;SHT31;67751;51.986;5.696;2024-02-26T13:38:53;8.0;78.4
78455;SHT31;67751;51.986;5.696;2024-02-26T13:41:24;8.0;78.1
78455;SHT31;67751;51.986;5.696;2024-02-26T13:43:54;8.0;78.2
78455;SHT31;67751;51.986;5.696;2024-02-26T13:46:25;8.0;78.3
78455;SHT31;67751;51.986;5.696;2024-02-26T13:48:55;8.0;78.9
78455;SHT31;67751;51.986;5.696;2024-02-26T13:51:24;8.0;79.0
78455;SHT31;67751;51.986;5.696;2024-02-26T13:53:54;8.1;77.9
78455;SHT31;67751;51.986;5.696;2024-02-26T13:56:23;8.1;78.2
78455;SHT31;67751;51.986;5.696;2024-02-26T13:58:53;8.1;77.7
78455;SHT31;67751;51.986;5.696;2024-02-26T14:01:23;8.1;78.3
78455;SHT31;67751;51.986;5.696;2024-02-26T14:03:55;8.1;79.1
78455;SHT31;67751;51.986;5.696;2024-02-26T14:06:25;8.1;78.0
78455;SHT31;67751;51.986;5.696;2024-02-26T14:08:54;8.1;78.9
78455;SHT31;67751;51.986;5.696;2024-02-26T14:11:24;8.1;77.9
78455;SHT31;67751;51.986;5.696;2024-02-26T14:13:56;8.1;77.7
78455;SHT31;67751;51.986;5.696;2024-02-26T14:16:26;8.1;78.5
78455;SHT31;67751;51.986;5.696;2024-02-26T14:18:56;8.1;77.6
78455;SHT31;67751;51.986;5.696;2024-02-26T14:21:26;8.1;77.8
78455;SHT31;67751;51.986;5.696;2024-02-26T14:23:57;8.1;76.9
78455;SHT31;67751;51.986;5.696;2024-02-26T14:26:26;8.1;77.2
78455;SHT31;67751;51.986;5.696;2024-02-26T14:28:56;8.1;78.8
78455;SHT31;67751;51.986;5.696;2024-02-26T14:31:26;8.1;78.6
78455;SHT31;67751;51.986;5.696;2024-02-26T14:33:55;8.1;77.6
78455;SHT31;67751;51.986;5.696;2024-02-26T14:36:25;8.2;78.4
78455;SHT31;67751;51.986;5.696;2024-02-26T14:38:56;8.2;77.5
78455;SHT31;67751;51.986;5.696;2024-02-26T14:41:26;8.2;77.4
78455;SHT31;67751;51.986;5.696;2024-02-26T14:43:55;8.2;78.2
78455;SHT31;67751;51.986;5.696;2024-02-26T14:46:25;8.2;78.1
78455;SHT31;67751;51.986;5.696;2024-02-26T14:48:55;8.2;79.0
78455;SHT31;67751;51.986;5.696;2024-02-26T14:51:27;8.3;78.0
78455;SHT31;67751;51.986;5.696;2024-02-26T14:53:56;8.3;77.1
78455;SHT31;67751;51.986;5.696;2024-02-26T14:56:28;8.3;76.9
78455;SHT31;67751;51.986;5.696;2024-02-26T14:58:58;8.3;77.3
78455;SHT31;67751;51.986;5.696;2024-02-26T15:01:29;8.3;77.1
78455;SHT31;67751;51.986;5.696;2024-02-26T15:04:00;8.4;77.6
78455;SHT31;67751;51.986;5.696;2024-02-26T15:06:31;8.4;76.8
78455;SHT31;67751;51.986;5.696;2024-02-26T15:09:02;8.4;76.1
78455;SHT31;67751;51.986;5.696;2024-02-26T15:11:33;8.4;75.2
78455;SHT31;67751;51.986;5.696;2024-02-26T15:14:02;8.3;75.2
78455;SHT31;67751;51.986;5.696;2024-02-26T15:16:32;8.3;76.1
78455;SHT31;67751;51.986;5.696;2024-02-26T15:19:01;8.3;76.0
78455;SHT31;67751;51.986;5.696;2024-02-26T15:21:31;8.3;75.6
78455;SHT31;67751;51.986;5.696;2024-02-26T15:24:01;8.3;75.8
78455;SHT31;67751;51.986;5.696;2024-02-26T15:26:31;8.3;75.7
78455;SHT31;67751;51.986;5.696;2024-02-26T15:29:01;8.3;76.1
78455;SHT31;67751;51.986;5.696;2024-02-26T15:31:31;8.3;76.2
78455;SHT31;67751;51.986;5.696;2024-02-26T15:34:00;8.3;75.9
78455;SHT31;67751;51.986;5.696;2024-02-26T15:36:30;8.3;75.9
78455;SHT31;67751;51.986;5.696;2024-02-26T15:39:02;8.3;76.1
78455;SHT31;67751;51.986;5.696;2024-02-26T15:41:34;8.3;76.4
78455;SHT31;67751;51.986;5.696;2024-02-26T15:44:04;8.3;74.8
78455;SHT31;67751;51.986;5.696;2024-02-26T15:46:38;8.3;75.4
78455;SHT31;67751;51.986;5.696;2024-02-26T15:49:08;8.3;74.7
78455;SHT31;67751;51.986;5.696;2024-02-26T15:51:38;8.3;74.7
78455;SHT31;67751;51.986;5.696;2024-02-26T15:54:07;8.3;74.7
78455;SHT31;67751;51.986;5.696;2024-02-26T15:56:37;8.2;74.7
78455;SHT31;67751;51.986;5.696;2024-02-26T15:59:07;8.2;75.0
78455;SHT31;67751;51.986;5.696;2024-02-26T16:01:38;8.2;75.5
78455;SHT31;67751;51.986;5.696;2024-02-26T16:04:08;8.2;74.5
78455;SHT31;67751;51.986;5.696;2024-02-26T16:06:42;8.2;75.5
78455;SHT31;67751;51.986;5.696;2024-02-26T16:09:12;8.2;75.0
78455;SHT31;67751;51.986;5.696;2024-02-26T16:11:42;8.2;74.8
78455;SHT31;67751;51.986;5.696;2024-02-26T16:14:24;8.2;75.6
78455;SHT31;67751;51.986;5.696;2024-02-26T16:16:59;8.1;74.4
78455;SHT31;67751;51.986;5.696;2024-02-26T16:19:30;8.1;73.7
78455;SHT31;67751;51.986;5.696;2024-02-26T16:22:01;8.1;75.2
78455;SHT31;67751;51.986;5.696;2024-02-26T16:24:31;8.1;76.5
78455;SHT31;67751;51.986;5.696;2024-02-26T16:27:01;8.1;76.0
78455;SHT31;67751;51.986;5.696;2024-02-26T16:29:31;8.1;75.3
78455;SHT31;67751;51.986;5.696;2024-02-26T16:32:01;8.1;74.7
78455;SHT31;67751;51.986;5.696;2024-02-26T16:34:30;8.1;74.7
78455;SHT31;67751;51.986;5.696;2024-02-26T16:37:07;8.1;74.8
78455;SHT31;67751;51.986;5.696;2024-02-26T16:39:38;8.1;75.3
78455;SHT31;67751;51.986;5.696;2024-02-26T16:42:09;8.1;74.3
78455;SHT31;67751;51.986;5.696;2024-02-26T16:44:40;8.1;75.5
78455;SHT31;67751;51.986;5.696;2024-02-26T16:47:09;8.1;73.6
78455;SHT31;67751;51.986;5.696;2024-02-26T16:49:41;8.1;74.6
78455;SHT31;67751;51.986;5.696;2024-02-26T16:52:12;8.1;73.7
78455;SHT31;67751;51.986;5.696;2024-02-26T16:54:42;8.1;74.9
78455;SHT31;67751;51.986;5.696;2024-02-26T16:57:12;8.1;74.5
78455;SHT31;67751;51.986;5.696;2024-02-26T16:59:41;8.1;73.1
78455;SHT31;67751;51.986;5.696;2024-02-26T17:02:11;8.1;73.3
78455;SHT31;67751;51.986;5.696;2024-02-26T17:04:41;8.1;72.6
78455;SHT31;67751;51.986;5.696;2024-02-26T17:07:10;8.1;73.7
78455;SHT31;67751;51.986;5.696;2024-02-26T17:09:40;8.0;73.1
78455;SHT31;67751;51.986;5.696;2024-02-26T17:12:10;8.0;73.4
78455;SHT31;67751;51.986;5.696;2024-02-26T17:14:39;8.0;73.2
78455;SHT31;67751;51.986;5.696;2024-02-26T17:17:09;8.0;73.5
78455;SHT31;67751;51.986;5.696;2024-02-26T17:19:39;8.0;73.7
78455;SHT31;67751;51.986;5.696;2024-02-26T17:22:09;8.0;72.5
78455;SHT31;67751;51.986;5.696;2024-02-26T17:24:38;8.0;72.8
78455;SHT31;67751;51.986;5.696;2024-02-26T17:27:08;8.0;72.5